Time;durP1;ratioP1;P1;durP2;ratioP2;P2;SDS_P1;SDS_P2;PMS_P1;PMS_P2;Temp;Humidity;BMP_temperature;BMP_pressure;BME280_temperature;BME280_humidity;BME280_pressure;Samples;Min_cycle;Max_cycle;Signal;HPM_P1;HPM_P2
2022/01/16 00:05:03;;;;;;;5.50;5.20;;;15.90;65.30;;;;;;5127548;27;43812;-78
2022/01/16 00:07:31;;;;;;;6.20;5.90;;;15.90;65.50;;;;;;5128789;27;45995;-78
2022/01/16 00:10:01;;;;;;;5.93;5.63;;;15.90;65.40;;;;;;5107234;27;44128;-78
2022/01/16 00:12:29;;;;;;;6.10;5.70;;;15.90;65.60;;;;;;5108565;27;43954;-78
2022/01/16 00:14:59;;;;;;;5.43;5.20;;;16.00;65.40;;;;;;5127654;27;44019;-77
2022/01/16 00:17:28;;;;;;;5.70;5.43;;;16.10;64.90;;;;;;5143906;27;45530;-77
2022/01/16 00:19:56;;;;;;;5.53;5.33;;;16.30;64.50;;;;;;5108059;27;43463;-77
2022/01/16 00:22:27;;;;;;;5.57;5.37;;;16.40;64.00;;;;;;5108301;27;43940;-77
2022/01/16 00:24:55;;;;;;;5.57;5.37;;;16.40;63.70;;;;;;5122704;27;44081;-77
2022/01/16 00:27:23;;;;;;;5.40;5.10;;;16.30;63.70;;;;;;5108156;27;44036;-77
2022/01/16 00:29:51;;;;;;;5.40;5.10;;;16.30;64.00;;;;;;5120141;27;44737;-77
2022/01/16 00:32:20;;;;;;;5.53;5.23;;;16.20;64.20;;;;;;5108107;27;44007;-77
2022/01/16 00:34:48;;;;;;;5.90;5.60;;;16.10;64.30;;;;;;5122181;27;43986;-77
2022/01/16 00:37:17;;;;;;;5.70;5.40;;;16.10;64.60;;;;;;5127700;27;43843;-77
2022/01/16 00:39:45;;;;;;;5.90;5.60;;;16.00;64.80;;;;;;5126182;27;44742;-77
2022/01/16 00:42:13;;;;;;;5.30;5.10;;;16.00;65.00;;;;;;5126607;27;44013;-77
2022/01/16 00:44:41;;;;;;;6.27;5.97;;;15.90;65.10;;;;;;5128514;27;44035;-77
2022/01/16 00:47:09;;;;;;;5.70;5.40;;;15.90;65.30;;;;;;5127634;27;43961;-77
2022/01/16 00:49:39;;;;;;;5.50;5.30;;;15.80;65.30;;;;;;5127423;27;44021;-78
2022/01/16 00:52:07;;;;;;;5.63;5.37;;;15.80;65.50;;;;;;5127567;27;44096;-77
2022/01/16 00:54:36;;;;;;;6.20;5.90;;;15.90;65.40;;;;;;5128073;27;44240;-77
2022/01/16 00:57:04;;;;;;;6.13;5.77;;;16.00;65.60;;;;;;5126903;27;44048;-78
2022/01/16 00:59:33;;;;;;;5.70;5.40;;;16.10;64.70;;;;;;5118697;27;45034;-78
2022/01/16 01:02:03;;;;;;;6.10;5.80;;;16.10;64.60;;;;;;5135049;27;43986;-78
2022/01/16 01:04:34;;;;;;;6.57;6.23;;;16.10;64.80;;;;;;5124558;27;43466;-78
2022/01/16 01:07:04;;;;;;;5.97;5.67;;;16.10;64.90;;;;;;5129432;27;45668;-78
2022/01/16 01:09:33;;;;;;;6.03;5.73;;;16.00;65.00;;;;;;5109153;27;44022;-78
2022/01/16 01:12:03;;;;;;;6.33;6.03;;;16.00;65.10;;;;;;5114718;27;43991;-78
2022/01/16 01:14:40;;;;;;;6.40;6.03;;;16.00;65.10;;;;;;5124626;27;43425;-78
2022/01/16 01:17:13;;;;;;;6.27;5.97;;;15.90;65.10;;;;;;5125160;27;43868;-78
2022/01/16 01:19:41;;;;;;;6.77;6.37;;;15.90;65.30;;;;;;5128473;27;44237;-77
2022/01/16 01:22:10;;;;;;;6.83;6.43;;;15.90;66.00;;;;;;5129661;27;44009;-77
2022/01/16 01:24:38;;;;;;;6.67;6.27;;;15.90;65.30;;;;;;5131389;27;44228;-77
2022/01/16 01:27:13;;;;;;;6.33;5.93;;;15.90;65.30;;;;;;5131097;27;43935;-79
2022/01/16 01:29:47;;;;;;;6.60;6.23;;;15.90;65.40;;;;;;5133445;27;44613;-77
2022/01/16 01:32:15;;;;;;;5.87;5.57;;;15.90;65.50;;;;;;5129141;27;43408;-77
2022/01/16 01:34:44;;;;;;;5.93;5.63;;;15.90;65.60;;;;;;5131128;27;43924;-77
2022/01/16 01:37:22;;;;;;;6.53;6.13;;;16.00;65.20;;;;;;5137442;27;43913;-77
2022/01/16 01:39:51;;;;;;;6.80;6.40;;;16.20;64.70;;;;;;5133847;27;44432;-77
2022/01/16 01:42:20;;;;;;;6.13;5.83;;;16.30;64.10;;;;;;5134665;27;43919;-77
2022/01/16 01:53:19;;;;;;;6.90;6.40;;;16.20;64.20;;;;;;5133872;27;43860;-77
2022/01/16 01:55:47;;;;;;;5.87;5.57;;;16.10;64.30;;;;;;5114708;27;44035;-77
2022/01/16 01:58:16;;;;;;;6.30;6.00;;;16.10;64.70;;;;;;5110423;27;43942;-77
2022/01/16 02:00:44;;;;;;;6.20;5.90;;;16.00;64.90;;;;;;5112691;27;43963;-77
2022/01/16 02:03:18;;;;;;;6.70;6.33;;;15.90;65.00;;;;;;5109525;27;43438;-77
2022/01/16 02:05:46;;;;;;;6.53;6.13;;;15.90;65.10;;;;;;5111269;27;43979;-79
2022/01/16 02:08:16;;;;;;;7.03;6.43;;;15.90;65.30;;;;;;5110556;27;43948;-78
2022/01/16 02:10:44;;;;;;;6.53;6.13;;;15.80;65.30;;;;;;5125804;27;45326;-78
2022/01/16 02:13:21;;;;;;;6.10;5.83;;;15.80;65.40;;;;;;5123331;27;44101;-78
2022/01/16 02:30:33;;;;;;;7.20;6.80;;;16.00;64.90;;;;;;5128647;27;45685;-77
2022/01/16 02:33:21;;;;;;;7.60;7.07;;;16.00;65.10;;;;;;5128610;27;43946;-78
2022/01/16 02:35:50;;;;;;;7.50;7.10;;;15.90;65.10;;;;;;5131186;27;44081;-77
2022/01/16 02:38:20;;;;;;;7.10;6.70;;;15.90;65.20;;;;;;5129869;27;44200;-77
2022/01/16 02:40:51;;;;;;;7.50;7.00;;;15.90;65.30;;;;;;5129484;27;45127;-78
2022/01/16 02:43:28;;;;;;;7.80;7.30;;;15.90;65.30;;;;;;5124304;27;44774;-78
2022/01/16 02:46:35;;;;;;;7.93;7.37;;;15.90;65.40;;;;;;5110352;27;44079;-77
2022/01/16 02:48:49;;;;;;;7.30;6.87;;;15.90;65.40;;;;;;5111860;27;43953;-77
2022/01/16 02:51:18;;;;;;;7.03;6.63;;;15.90;65.50;;;;;;5110108;27;45435;-77
2022/01/16 02:53:47;;;;;;;7.17;6.67;;;15.80;65.50;;;;;;5109298;27;44073;-78
2022/01/16 02:56:18;;;;;;;7.90;7.40;;;15.90;65.60;;;;;;5129270;27;43407;-77
2022/01/16 02:58:46;;;;;;;7.83;7.33;;;16.00;65.30;;;;;;5123766;27;44396;-77
2022/01/16 03:01:14;;;;;;;6.77;6.37;;;16.10;64.70;;;;;;5128152;27;43939;-77
2022/01/16 03:03:42;;;;;;;7.33;6.83;;;16.30;64.30;;;;;;5129513;27;43951;-78
2022/01/16 03:06:10;;;;;;;7.40;6.97;;;16.40;63.90;;;;;;5129614;27;43852;-77
2022/01/16 03:08:38;;;;;;;6.63;6.33;;;16.30;63.70;;;;;;5128331;27;44079;-77
2022/01/16 03:11:25;;;;;;;7.10;6.70;;;16.30;63.90;;;;;;5128883;27;43911;-77
2022/01/16 03:13:54;;;;;;;7.00;6.60;;;16.20;64.10;;;;;;5129480;27;43925;-77
2022/01/16 03:16:23;;;;;;;7.10;6.70;;;16.10;64.40;;;;;;5129186;27;43909;-77
2022/01/16 03:21:55;;;;;;;7.67;7.17;;;16.00;64.80;;;;;;5128017;27;45512;-78
2022/01/16 03:24:25;;;;;;;7.50;7.07;;;15.90;65.00;;;;;;5115887;27;43388;-78
2022/01/16 03:26:55;;;;;;;7.90;7.40;;;15.90;65.20;;;;;;5113137;27;43956;-78
2022/01/16 03:29:25;;;;;;;8.67;8.00;;;15.90;65.30;;;;;;5128805;27;44253;-78
2022/01/16 03:31:53;;;;;;;8.07;7.50;;;15.80;65.40;;;;;;5131595;27;45833;-78
2022/01/16 03:34:22;;;;;;;8.00;7.50;;;15.80;65.40;;;;;;5113286;27;44045;-78
2022/01/16 03:36:50;;;;;;;8.33;7.73;;;15.80;65.50;;;;;;5142186;27;44040;-78
2022/01/16 03:39:19;;;;;;;8.43;7.83;;;15.90;65.50;;;;;;5128063;27;43989;-78
2022/01/16 03:41:46;;;;;;;8.00;7.50;;;16.00;65.10;;;;;;5128693;27;45168;-78
2022/01/16 03:44:15;;;;;;;8.47;7.87;;;16.00;64.70;;;;;;5127785;27;44627;-78
2022/01/16 03:46:44;;;;;;;8.27;7.67;;;16.10;64.70;;;;;;5127766;27;43973;-78
2022/01/16 03:49:14;;;;;;;8.50;7.90;;;16.00;64.80;;;;;;5127785;27;44001;-78
2022/01/16 03:51:44;;;;;;;9.00;8.40;;;16.00;64.90;;;;;;5128687;27;43864;-78
2022/01/16 03:54:13;;;;;;;8.53;7.83;;;16.00;65.00;;;;;;5113732;27;44418;-78
2022/01/16 03:56:42;;;;;;;8.30;7.70;;;16.00;65.10;;;;;;5130884;27;44041;-78
2022/01/16 03:59:11;;;;;;;8.37;7.77;;;15.90;65.10;;;;;;5130565;27;43942;-78
2022/01/16 04:01:40;;;;;;;9.20;8.50;;;15.90;65.20;;;;;;5124954;27;44076;-77
2022/01/16 04:04:10;;;;;;;8.37;7.80;;;15.90;65.40;;;;;;5122611;27;44710;-78
2022/01/16 04:06:39;;;;;;;8.87;8.17;;;15.80;65.40;;;;;;5129356;27;43461;-78
2022/01/16 04:09:08;;;;;;;8.63;8.03;;;15.80;65.40;;;;;;5128232;27;43801;-78
2022/01/16 04:11:42;;;;;;;7.77;7.27;;;15.80;65.40;;;;;;5126406;27;45740;-78
2022/01/16 04:14:15;;;;;;;8.10;7.57;;;15.80;65.60;;;;;;5128444;27;44091;-77
2022/01/16 04:16:43;;;;;;;8.13;7.63;;;15.80;65.60;;;;;;5127211;27;43939;-77
2022/01/16 04:19:13;;;;;;;8.60;8.00;;;15.80;66.50;;;;;;5128860;27;44040;-77
2022/01/16 04:21:42;;;;;;;8.30;7.70;;;15.90;65.50;;;;;;5127945;27;44830;-77
2022/01/16 04:24:10;;;;;;;8.57;7.97;;;16.10;65.00;;;;;;5127942;27;44007;-78
2022/01/16 04:26:38;;;;;;;8.67;7.97;;;16.20;64.40;;;;;;5127915;27;44024;-77
2022/01/16 04:29:07;;;;;;;8.60;7.93;;;16.30;64.00;;;;;;5128577;27;43965;-77
2022/01/16 04:31:35;;;;;;;8.37;7.77;;;16.30;63.80;;;;;;5127673;27;43985;-78
2022/01/16 04:34:03;;;;;;;8.33;7.73;;;16.30;63.90;;;;;;5127811;27;44035;-78
2022/01/16 04:36:32;;;;;;;8.10;7.60;;;16.20;64.10;;;;;;5126647;27;43939;-79
2022/01/16 04:39:01;;;;;;;8.87;8.27;;;16.10;64.30;;;;;;5126910;27;43987;-78
2022/01/16 04:44:18;;;;;;;9.23;8.53;;;16.00;64.80;;;;;;5126769;27;44091;-78
2022/01/16 04:46:47;;;;;;;8.70;8.07;;;16.00;65.00;;;;;;5126383;27;43870;-77
2022/01/16 04:49:15;;;;;;;8.83;8.23;;;15.90;65.00;;;;;;5127428;27;43966;-77
2022/01/16 04:51:45;;;;;;;8.97;8.33;;;15.90;65.10;;;;;;5127765;27;43952;-77
2022/01/16 04:54:13;;;;;;;9.10;8.50;;;15.90;65.20;;;;;;5126210;27;44634;-77
2022/01/16 04:56:41;;;;;;;9.17;8.57;;;15.90;65.20;;;;;;5126536;27;43889;-77
2022/01/16 04:59:09;;;;;;;8.93;8.33;;;15.90;65.30;;;;;;5107014;27;43565;-77
2022/01/16 05:01:37;;;;;;;8.80;8.10;;;16.00;65.20;;;;;;5125965;27;45932;-77
2022/01/16 05:04:06;;;;;;;8.37;7.87;;;16.10;64.80;;;;;;5127388;27;43910;-77
2022/01/16 05:06:34;;;;;;;8.53;8.00;;;16.10;64.40;;;;;;5127568;27;44048;-77
2022/01/16 05:09:03;;;;;;;8.20;7.67;;;16.10;64.50;;;;;;5123388;27;43982;-77
2022/01/16 05:11:31;;;;;;;9.53;8.83;;;16.10;64.70;;;;;;5106016;27;45574;-77
2022/01/16 05:16:45;;;;;;;8.90;8.30;;;16.00;65.00;;;;;;5123706;27;43999;-77
2022/01/16 05:19:15;;;;;;;9.00;8.30;;;15.90;65.10;;;;;;5129058;27;43411;-77
2022/01/16 05:21:44;;;;;;;9.17;8.47;;;15.90;65.20;;;;;;5127039;27;44032;-77
2022/01/16 05:24:14;;;;;;;8.10;7.60;;;15.90;65.30;;;;;;5127443;27;43903;-78
2022/01/16 05:26:44;;;;;;;8.70;8.10;;;15.80;65.40;;;;;;5126425;27;43927;-77
2022/01/16 05:29:13;;;;;;;8.37;7.87;;;15.80;65.50;;;;;;5126940;27;43475;-77
2022/01/16 05:31:44;;;;;;;8.07;7.57;;;15.80;65.50;;;;;;5127112;27;43858;-77
2022/01/16 05:34:13;;;;;;;9.00;8.30;;;15.80;65.60;;;;;;5127483;27;43652;-77
2022/01/16 05:36:42;;;;;;;8.43;7.83;;;15.70;65.60;;;;;;5119286;27;44037;-77
2022/01/16 05:39:10;;;;;;;8.67;8.07;;;15.70;65.70;;;;;;5118665;27;43920;-77
2022/01/16 05:41:39;;;;;;;7.97;7.47;;;15.80;65.80;;;;;;5125414;27;45783;-78
2022/01/16 05:44:07;;;;;;;8.10;7.57;;;15.90;65.50;;;;;;5125866;27;44718;-77
2022/01/16 05:46:36;;;;;;;8.97;8.37;;;16.10;65.00;;;;;;5126143;27;43982;-78
2022/01/16 05:49:05;;;;;;;8.40;7.80;;;16.20;64.40;;;;;;5126465;27;43609;-77
2022/01/16 05:51:33;;;;;;;8.87;8.27;;;16.20;64.10;;;;;;5108836;27;43982;-77
2022/01/16 05:54:01;;;;;;;7.73;7.23;;;16.20;64.10;;;;;;5106488;27;44089;-77
2022/01/16 05:56:29;;;;;;;8.07;7.57;;;16.10;64.20;;;;;;5107249;27;43419;-77
2022/01/16 05:58:58;;;;;;;8.77;8.17;;;16.10;64.30;;;;;;5126373;27;44258;-77
2022/01/16 06:01:27;;;;;;;9.13;8.50;;;16.10;64.60;;;;;;5137681;27;43906;-77
2022/01/16 06:03:57;;;;;;;8.77;8.07;;;16.10;64.80;;;;;;5126090;27;43371;-77
2022/01/16 06:06:26;;;;;;;9.10;8.40;;;16.00;64.80;;;;;;5126928;27;43883;-77
2022/01/16 06:08:55;;;;;;;8.60;8.00;;;16.00;65.00;;;;;;5130462;27;43883;-77
2022/01/16 06:11:26;;;;;;;9.70;9.00;;;15.90;64.90;;;;;;5129208;27;46091;-78
2022/01/16 06:13:54;;;;;;;9.40;8.67;;;15.90;65.10;;;;;;5128779;27;44718;-77
2022/01/16 06:16:23;;;;;;;9.17;8.53;;;15.90;65.10;;;;;;5130159;27;43979;-77
2022/01/16 06:18:53;;;;;;;8.47;7.87;;;15.90;65.20;;;;;;5129104;27;44114;-78
2022/01/16 06:21:21;;;;;;;8.53;7.93;;;15.90;65.40;;;;;;5129852;27;44842;-77
2022/01/16 06:23:49;;;;;;;8.40;7.83;;;16.00;65.20;;;;;;5130986;27;45156;-77
2022/01/16 06:26:18;;;;;;;8.43;7.83;;;16.00;64.70;;;;;;5146238;27;44054;-77
2022/01/16 06:28:46;;;;;;;7.93;7.50;;;16.00;64.50;;;;;;5109093;27;43505;-76
2022/01/16 06:31:14;;;;;;;8.23;7.70;;;16.00;64.60;;;;;;5129950;27;44398;-78
2022/01/16 06:33:45;;;;;;;8.23;7.73;;;16.00;64.80;;;;;;5125404;27;43998;-78
2022/01/16 06:36:14;;;;;;;8.47;7.87;;;15.90;64.90;;;;;;5122861;27;43930;-77
2022/01/16 06:38:42;;;;;;;8.57;7.97;;;15.90;65.00;;;;;;5122832;27;43933;-77
2022/01/16 06:41:10;;;;;;;8.30;7.80;;;15.80;65.10;;;;;;5116305;27;43961;-78
2022/01/16 06:43:38;;;;;;;8.07;7.57;;;15.80;65.30;;;;;;5129744;27;44322;-78
2022/01/16 06:46:09;;;;;;;8.03;7.53;;;15.80;65.40;;;;;;5109966;27;43999;-77
2022/01/16 06:48:37;;;;;;;8.90;8.30;;;15.70;65.40;;;;;;5122947;27;43766;-77
2022/01/16 06:51:06;;;;;;;8.10;7.63;;;15.70;66.30;;;;;;5129319;27;44864;-78
2022/01/16 06:53:34;;;;;;;8.97;8.37;;;15.70;65.70;;;;;;5121670;27;43837;-77
2022/01/16 06:56:04;;;;;;;9.00;8.30;;;15.70;65.70;;;;;;5109030;27;44079;-78
2022/01/16 06:58:33;;;;;;;8.70;8.10;;;15.70;65.80;;;;;;5123463;27;44080;-78
2022/01/16 07:01:02;;;;;;;8.53;7.93;;;15.70;65.90;;;;;;5126617;27;43848;-78
2022/01/16 07:03:30;;;;;;;8.57;7.97;;;15.80;65.80;;;;;;5129984;27;45286;-79
2022/01/16 07:06:01;;;;;;;8.63;8.03;;;15.90;65.50;;;;;;5152265;27;44020;-79
2022/01/16 07:08:31;;;;;;;8.93;8.33;;;16.10;64.90;;;;;;5134206;27;43753;-82
2022/01/16 07:10:59;;;;;;;8.27;7.70;;;16.20;64.40;;;;;;5116393;27;44100;-81
2022/01/16 07:13:28;;;;;;;8.60;8.00;;;16.30;63.90;;;;;;5119099;27;44045;-83
2022/01/16 07:15:57;;;;;;;8.60;8.00;;;16.30;63.80;;;;;;5121834;27;43928;-81
2022/01/16 07:18:26;;;;;;;8.47;7.83;;;16.30;63.90;;;;;;5113960;27;44063;-81
2022/01/16 07:20:59;;;;;;;8.87;8.20;;;16.20;64.10;;;;;;5134896;27;44212;-81
2022/01/16 07:23:27;;;;;;;8.00;7.50;;;16.10;64.30;;;;;;5134771;27;44345;-80
2022/01/16 07:25:58;;;;;;;7.90;7.37;;;16.10;64.50;;;;;;5130431;27;44084;-80
2022/01/16 07:28:27;;;;;;;8.57;7.97;;;16.00;64.80;;;;;;5127676;27;43897;-81
2022/01/16 07:30:55;;;;;;;8.30;7.73;;;15.90;64.80;;;;;;5134265;27;43887;-79
2022/01/16 07:33:23;;;;;;;8.23;7.70;;;15.90;65.00;;;;;;5125730;27;43975;-80
2022/01/16 07:35:52;;;;;;;8.37;7.77;;;15.90;65.20;;;;;;5114308;27;43879;-80
2022/01/16 07:38:20;;;;;;;8.37;7.77;;;15.80;65.20;;;;;;5131975;27;43955;-80
2022/01/16 07:40:49;;;;;;;8.10;7.60;;;15.80;65.40;;;;;;5126652;27;44149;-82
2022/01/16 07:43:19;;;;;;;8.57;7.97;;;15.80;65.60;;;;;;5121331;27;44007;-80
2022/01/16 07:45:48;;;;;;;8.70;7.90;;;15.80;65.50;;;;;;5131065;27;44172;-80
2022/01/16 07:48:17;;;;;;;8.20;7.63;;;15.90;65.00;;;;;;5130180;27;44050;-80
2022/01/16 07:50:46;;;;;;;7.93;7.40;;;16.00;64.80;;;;;;5149887;27;47226;-81
2022/01/16 07:53:15;;;;;;;7.80;7.10;;;15.90;64.80;;;;;;5128783;27;45420;-81
2022/01/16 07:55:44;;;;;;;8.00;7.50;;;15.90;64.90;;;;;;5133239;27;43924;-83
2022/01/16 07:58:13;;;;;;;7.90;7.37;;;15.90;65.10;;;;;;5131764;27;43474;-82
2022/01/16 08:00:44;;;;;;;8.10;7.53;;;15.90;65.30;;;;;;5131898;27;45540;-79
2022/01/16 08:03:13;;;;;;;7.67;7.13;;;15.80;65.40;;;;;;5128059;27;44682;-80
2022/01/16 08:05:42;;;;;;;7.67;7.17;;;15.80;65.50;;;;;;5131978;27;43993;-79
2022/01/16 08:08:11;;;;;;;7.50;7.00;;;15.80;65.60;;;;;;5115364;27;44155;-79
2022/01/16 08:10:41;;;;;;;8.00;7.50;;;15.70;65.60;;;;;;5123950;27;43862;-79
2022/01/16 08:13:10;;;;;;;8.17;7.57;;;15.70;65.60;;;;;;5128141;27;44630;-79
2022/01/16 08:15:39;;;;;;;7.30;6.87;;;15.70;65.70;;;;;;5130219;27;43988;-79
2022/01/16 08:18:09;;;;;;;7.27;6.87;;;15.70;65.70;;;;;;5118236;27;43398;-79
2022/01/16 08:20:38;;;;;;;7.50;7.00;;;15.70;65.70;;;;;;5130457;27;44823;-79
2022/01/16 08:23:07;;;;;;;8.20;7.60;;;15.70;65.70;;;;;;5110833;27;44063;-79
2022/01/16 08:25:36;;;;;;;7.30;6.87;;;15.70;65.80;;;;;;5116378;27;43540;-79
2022/01/16 08:28:06;;;;;;;7.63;7.13;;;15.80;65.80;;;;;;5124088;27;44048;-79
2022/01/16 08:30:35;;;;;;;7.67;7.17;;;15.90;65.40;;;;;;5130126;27;44324;-80
2022/01/16 08:33:04;;;;;;;7.10;6.60;;;16.10;64.90;;;;;;5130322;27;43487;-79
2022/01/16 08:35:35;;;;;;;7.53;7.03;;;16.20;64.40;;;;;;5130455;27;44002;-79
2022/01/16 08:38:04;;;;;;;6.43;6.03;;;16.30;64.10;;;;;;5130529;27;43441;-79
2022/01/16 08:40:32;;;;;;;6.30;6.00;;;16.30;63.90;;;;;;5110546;27;43671;-79
2022/01/16 08:43:08;;;;;;;7.10;6.70;;;16.20;64.00;;;;;;5122365;27;43909;-80
2022/01/16 08:45:38;;;;;;;7.63;7.13;;;16.10;64.20;;;;;;5130638;27;44009;-79
2022/01/16 08:48:07;;;;;;;6.73;6.33;;;16.10;64.50;;;;;;5125223;27;44029;-79
2022/01/16 08:50:39;;;;;;;6.70;6.40;;;16.00;64.80;;;;;;5128913;27;45640;-79
2022/01/16 08:53:07;;;;;;;7.00;6.60;;;15.90;64.90;;;;;;5126888;27;44582;-79
2022/01/16 08:55:37;;;;;;;7.67;7.17;;;15.90;65.20;;;;;;5140502;27;43996;-79
2022/01/16 08:58:07;;;;;;;6.73;6.33;;;15.80;65.20;;;;;;5131234;27;43591;-81
2022/01/16 09:00:36;;;;;;;7.00;6.60;;;15.80;65.40;;;;;;5129065;27;45561;-78
2022/01/16 09:03:07;;;;;;;6.80;6.40;;;15.80;65.50;;;;;;5127328;27;45036;-77
2022/01/16 09:05:37;;;;;;;6.70;6.30;;;15.70;65.60;;;;;;5127044;27;43900;-78
2022/01/16 09:08:06;;;;;;;7.13;6.67;;;15.70;65.80;;;;;;5126941;27;43991;-78
2022/01/16 09:10:35;;;;;;;7.73;7.23;;;15.80;65.80;;;;;;5127177;27;45668;-77
2022/01/16 09:13:04;;;;;;;6.80;6.30;;;15.80;65.30;;;;;;5122560;27;44003;-78
2022/01/16 09:15:34;;;;;;;6.37;6.00;;;15.90;65.10;;;;;;5112487;27;43439;-78
2022/01/16 09:18:02;;;;;;;6.60;6.13;;;15.90;65.00;;;;;;5130434;27;43480;-77
2022/01/16 09:20:31;;;;;;;7.20;6.70;;;15.90;65.20;;;;;;5141960;27;45848;-77
2022/01/16 09:23:02;;;;;;;6.43;6.03;;;15.80;65.20;;;;;;5140006;27;45054;-77
2022/01/16 09:25:30;;;;;;;6.87;6.47;;;15.80;65.30;;;;;;5107551;27;43910;-78
2022/01/16 09:27:59;;;;;;;6.60;6.30;;;15.80;65.50;;;;;;5120158;27;43597;-78
2022/01/16 09:30:29;;;;;;;7.60;7.10;;;15.70;65.50;;;;;;5107779;27;44070;-75
2022/01/16 09:32:57;;;;;;;6.47;6.17;;;15.70;65.60;;;;;;5106871;27;43450;-75
2022/01/16 09:35:25;;;;;;;6.87;6.47;;;15.70;65.70;;;;;;5107365;27;43822;-76
2022/01/16 09:37:54;;;;;;;6.37;6.07;;;15.70;65.80;;;;;;5107522;27;44069;-75
2022/01/16 09:40:24;;;;;;;6.80;6.40;;;15.70;65.80;;;;;;5121565;27;45133;-78
2022/01/16 09:42:53;;;;;;;6.40;6.03;;;15.70;65.90;;;;;;5130388;27;43820;-79
2022/01/16 09:45:21;;;;;;;6.47;6.17;;;15.70;66.00;;;;;;5129247;27;44140;-76
2022/01/16 09:47:49;;;;;;;6.37;6.07;;;15.60;65.80;;;;;;5131714;27;44026;-77
2022/01/16 09:50:19;;;;;;;7.00;6.60;;;15.70;66.00;;;;;;5130637;27;43966;-78
2022/01/16 09:52:48;;;;;;;6.67;6.27;;;15.80;65.60;;;;;;5130401;27;43378;-76
2022/01/16 09:55:17;;;;;;;6.67;6.27;;;16.00;65.20;;;;;;5117256;27;43968;-76
2022/01/16 09:57:46;;;;;;;6.97;6.50;;;16.10;64.60;;;;;;5111361;27;43954;-77
2022/01/16 10:00:16;;;;;;;6.70;6.30;;;16.20;64.20;;;;;;5110555;27;43863;-76
2022/01/16 10:02:47;;;;;;;6.93;6.53;;;16.20;64.00;;;;;;5107413;27;44089;-76
2022/01/16 10:05:23;;;;;;;6.30;6.00;;;16.20;64.10;;;;;;5121723;27;43943;-76
2022/01/16 10:07:51;;;;;;;5.63;5.43;;;16.10;64.30;;;;;;5129109;27;43375;-76
2022/01/16 10:10:19;;;;;;;6.37;6.00;;;16.10;64.60;;;;;;5129136;27;43994;-76
2022/01/16 10:12:51;;;;;;;6.67;6.27;;;16.00;64.70;;;;;;5128466;27;44679;-76
2022/01/16 10:15:20;;;;;;;6.10;5.80;;;15.90;65.00;;;;;;5130283;27;43384;-76
2022/01/16 10:17:49;;;;;;;6.30;5.90;;;15.90;65.10;;;;;;5130439;27;44043;-76
2022/01/16 10:20:46;;;;;;;7.30;6.90;;;15.90;65.20;;;;;;5127567;27;43852;-80
2022/01/16 10:23:21;;;;;;;6.47;6.07;;;15.80;65.40;;;;;;5111097;27;43783;-76
2022/01/16 10:25:50;;;;;;;6.47;6.00;;;15.80;65.50;;;;;;5129653;27;43498;-76
2022/01/16 10:28:21;;;;;;;7.37;6.90;;;15.80;65.70;;;;;;5130330;27;44035;-77
2022/01/16 10:30:50;;;;;;;6.97;6.47;;;15.80;65.80;;;;;;5128524;27;44233;-76
2022/01/16 10:33:20;;;;;;;7.07;6.50;;;15.90;65.70;;;;;;5128676;27;43889;-76
2022/01/16 10:35:50;;;;;;;6.43;6.03;;;15.90;65.30;;;;;;5129632;27;43885;-76
2022/01/16 10:38:19;;;;;;;6.83;6.23;;;15.90;65.00;;;;;;5130385;27;43385;-77
2022/01/16 10:40:50;;;;;;;6.57;6.17;;;15.90;65.30;;;;;;5128552;27;47077;-76
2022/01/16 10:43:21;;;;;;;6.70;6.30;;;15.90;65.80;;;;;;5128762;27;44826;-75
2022/01/16 10:45:52;;;;;;;6.93;6.53;;;15.90;66.10;;;;;;5129412;27;43385;-80
2022/01/16 10:48:24;;;;;;;7.07;6.57;;;15.80;66.10;;;;;;5125755;27;43313;-76
2022/01/16 10:50:53;;;;;;;6.63;6.23;;;15.80;66.40;;;;;;5110473;27;44108;-76
2022/01/16 10:53:25;;;;;;;7.33;6.73;;;15.80;66.50;;;;;;5123687;27;44348;-77
2022/01/16 10:55:54;;;;;;;7.53;6.93;;;15.70;66.60;;;;;;5138304;27;44045;-75
2022/01/16 10:58:24;;;;;;;7.30;6.80;;;15.70;66.80;;;;;;5129761;27;43892;-76
2022/01/16 11:00:54;;;;;;;8.00;7.30;;;15.80;67.00;;;;;;5127303;27;45640;-76
2022/01/16 11:03:23;;;;;;;6.50;6.10;;;15.80;67.00;;;;;;5129564;27;43931;-76
2022/01/16 11:05:52;;;;;;;7.17;6.67;;;15.80;67.10;;;;;;5130530;27;43451;-76
2022/01/16 11:08:23;;;;;;;7.93;7.33;;;15.80;67.00;;;;;;5129200;27;44021;-75
2022/01/16 11:10:52;;;;;;;7.73;7.13;;;15.80;66.90;;;;;;5128891;27;44941;-76
2022/01/16 11:13:21;;;;;;;7.37;6.87;;;15.80;66.80;;;;;;5129277;27;43978;-77
2022/01/16 11:15:51;;;;;;;7.10;6.53;;;15.90;66.60;;;;;;5127331;27;43938;-75
2022/01/16 11:18:23;;;;;;;6.70;6.20;;;16.00;66.20;;;;;;5129700;27;44023;-76
2022/01/16 11:20:57;;;;;;;7.60;6.93;;;16.20;65.80;;;;;;5129196;27;44009;-76
2022/01/16 11:23:31;;;;;;;7.23;6.63;;;16.30;65.30;;;;;;5129312;27;43910;-76
2022/01/16 11:26:00;;;;;;;7.43;6.90;;;16.30;65.00;;;;;;5128288;27;43408;-75
2022/01/16 11:28:28;;;;;;;16.67;6.80;;;16.30;65.20;;;;;;5128626;27;43554;-76
2022/01/16 11:30:58;;;;;;;184.37;16.87;;;16.20;66.20;;;;;;5129129;27;43855;-76
2022/01/16 11:33:27;;;;;;;98.00;12.57;;;16.20;66.90;;;;;;5130678;27;43995;-75
2022/01/16 11:35:57;;;;;;;60.23;11.57;;;16.20;67.70;;;;;;5128422;27;43952;-76
2022/01/16 11:38:31;;;;;;;47.63;10.13;;;16.10;67.60;;;;;;5130096;27;43964;-75
2022/01/16 11:41:03;;;;;;;34.00;13.13;;;16.10;67.00;;;;;;5128958;27;43903;-76
2022/01/16 11:43:34;;;;;;;27.27;15.43;;;16.00;66.10;;;;;;5128936;27;43962;-76
2022/01/16 11:46:09;;;;;;;27.33;19.07;;;16.00;64.70;;;;;;5127318;27;43430;-75
2022/01/16 11:48:38;;;;;;;27.50;21.73;;;15.90;63.30;;;;;;5129475;27;43954;-76
2022/01/16 11:52:04;;;;;;;30.90;24.30;;;15.90;62.10;;;;;;5128802;27;44852;-76
2022/01/16 11:54:37;;;;;;;31.07;25.47;;;15.90;58.70;;;;;;5128111;27;43930;-76
2022/01/16 11:57:07;;;;;;;32.10;25.63;;;15.90;56.80;;;;;;5128753;27;44040;-76
2022/01/16 11:59:38;;;;;;;35.90;24.27;;;16.00;56.70;;;;;;5128206;27;44138;-75
2022/01/16 12:02:21;;;;;;;400.00;43.07;;;16.00;57.80;;;;;;5145049;27;46035;-75
2022/01/16 12:04:55;;;;;;;405.60;47.60;;;16.00;57.90;;;;;;5106899;27;44421;-76
2022/01/16 12:07:49;;;;;;;513.00;53.43;;;16.00;59.10;;;;;;5127830;27;43944;-76
2022/01/16 12:10:40;;;;;;;589.10;59.43;;;16.00;63.10;;;;;;5129159;27;44008;-76
2022/01/16 12:13:45;;;;;;;424.60;51.77;;;16.10;62.50;;;;;;5129685;27;43586;-76
2022/01/16 12:16:38;;;;;;;243.33;40.50;;;16.00;62.90;;;;;;5107620;27;44026;-76
2022/01/16 12:19:46;;;;;;;138.10;30.57;;;16.00;61.40;;;;;;5118274;27;43412;-76
2022/01/16 12:22:17;;;;;;;137.97;30.70;;;16.00;60.60;;;;;;5128047;27;44147;-76
2022/01/16 12:24:49;;;;;;;112.20;28.33;;;16.00;60.70;;;;;;5129836;27;44021;-76
2022/01/16 12:27:46;;;;;;;102.13;27.27;;;16.00;60.90;;;;;;5127096;27;44821;-76
2022/01/16 12:30:32;;;;;;;112.20;25.30;;;16.00;61.20;;;;;;5107133;27;43381;-76
2022/01/16 12:33:08;;;;;;;106.27;25.20;;;16.00;61.30;;;;;;5122574;27;43936;-76
2022/01/16 12:36:15;;;;;;;93.93;25.43;;;15.90;61.40;;;;;;5128604;27;44052;-78
2022/01/16 12:38:54;;;;;;;91.83;23.23;;;16.00;61.80;;;;;;5128380;27;43431;-77
2022/01/16 12:41:27;;;;;;;75.97;22.23;;;16.10;61.60;;;;;;5128537;27;44087;-76
2022/01/16 12:43:57;;;;;;;79.10;21.57;;;16.20;61.30;;;;;;5128134;27;44028;-75
2022/01/16 12:46:29;;;;;;;71.67;21.10;;;16.40;61.00;;;;;;5127203;27;44514;-75
2022/01/16 12:49:01;;;;;;;71.70;20.13;;;16.50;60.50;;;;;;5143780;27;43964;-75
2022/01/16 12:51:34;;;;;;;68.80;20.70;;;16.50;60.40;;;;;;5108889;27;43908;-77
2022/01/16 12:54:04;;;;;;;55.87;20.43;;;16.50;61.60;;;;;;5107887;27;43903;-76
2022/01/16 12:56:34;;;;;;;64.40;18.67;;;16.30;61.70;;;;;;5116495;27;47040;-77
2022/01/16 12:59:18;;;;;;;49.77;19.07;;;16.20;62.50;;;;;;5108140;27;43982;-76
2022/01/16 13:01:51;;;;;;;44.50;17.37;;;16.10;62.80;;;;;;5121376;27;43907;-76
2022/01/16 13:04:26;;;;;;;47.67;17.23;;;16.10;63.20;;;;;;5119496;27;44072;-75
2022/01/16 13:06:56;;;;;;;40.00;17.07;;;16.10;63.40;;;;;;5125422;27;44012;-75
2022/01/16 13:09:27;;;;;;;41.67;16.10;;;16.00;63.30;;;;;;5131149;27;43968;-76
2022/01/16 13:11:58;;;;;;;42.87;17.53;;;16.00;63.40;;;;;;5130480;27;43970;-76
2022/01/16 13:14:28;;;;;;;38.30;16.20;;;16.00;63.30;;;;;;5125909;27;44063;-76
2022/01/16 13:16:57;;;;;;;38.80;15.47;;;16.00;63.20;;;;;;5113644;27;43892;-75
2022/01/16 13:19:26;;;;;;;30.87;14.97;;;16.10;63.00;;;;;;5133513;27;44469;-75
2022/01/16 13:22:01;;;;;;;31.57;15.13;;;16.20;62.50;;;;;;5115171;27;43493;-75
2022/01/16 13:24:40;;;;;;;32.83;15.13;;;16.20;62.70;;;;;;5124983;27;44036;-76
2022/01/16 13:27:11;;;;;;;33.93;13.77;;;16.20;62.70;;;;;;5126894;27;45650;-76
2022/01/16 13:29:42;;;;;;;29.70;14.63;;;16.20;62.90;;;;;;5130763;27;44360;-76
2022/01/16 13:32:11;;;;;;;28.73;14.00;;;16.20;63.00;;;;;;5114363;27;43458;-76
2022/01/16 13:34:42;;;;;;;28.43;13.13;;;16.10;63.20;;;;;;5113478;27;43963;-76
2022/01/16 13:37:16;;;;;;;25.50;13.60;;;16.10;63.40;;;;;;5113672;27;43815;-76